Kezdőlap
METAR-TAF:

METAR-TAF

Repülőterek :

Danbury Municipal Airport

Danbury, Connecticut, Amerikai Egyesült Államok

földrajzi szélesség: 41-22-18N, földrajzi hosszúság: 073-29-04W, magasság: 139 m

Jelenlegi meteorológiai megfigyelések

A jelentés 7 perccel ezelõtt készült, 08:53 UTC
Keleti szél 9 kt
Hőmérséklet 6°C
Páratartalom 100%
Légköri nyomás 994 hPa
Látótávolság: 3.2 km
Szórványos felhőzet 1000 lábon
Szakadozott felhőzet 1400 lábon
Borult 2500 lábon
esõ, Párásság

METAR: KDXR 270853Z AUTO 08009KT 2SM RA BR SCT010 BKN014 OVC025 06/06 A2936 RMK AO2 SLP942 P0011 60051 T00610056 56075

Idő: 04:00 (09:00 UTC)


TAF: hiányzik

Meteorológiai megfigyelések és előrejelzések több, mint 4000 repülőtéren (METAR és TAF jelentéseket).

A térképen piros és sárga pontok jelzik az elérhető meteorológiai állomásokat.

Mozgassa az egeret a pont fölött, hogy megjelenjen az állomás neve.

Azután kattintson az időjárási megfigyelések és előrejelzések megtekintéséhez.

A térkép megváltoztatása: kattintson a fekete keresztel jelölt zöld gombra ráközelítéshez, a vonallal jelölt zöld gombra távolításhoz, vagy a zöld nyilakra a szomszédos térképek eléréséhez.


METAR-TAF: